Time;durP1;ratioP1;P1;durP2;ratioP2;P2;SDS_P1;SDS_P2;PMS_P1;PMS_P2;Temp;Humidity;BMP_temperature;BMP_pressure;BME280_temperature;BME280_humidity;BME280_pressure;Samples;Min_cycle;Max_cycle;Signal;HPM_P1;HPM_P2
2023/04/04 00:03:08;;;;;;;;;;;1.08;-0.78;;;;;;2673054;76;20901;-90
2023/04/04 00:06:37;;;;;;;;;;;1.04;-0.67;;;;;;2672840;76;20462;-90
2023/04/04 00:10:05;;;;;;;;;;;1.05;-0.54;;;;;;2672750;76;20441;-90
2023/04/04 00:13:33;;;;;;;;;;;0.95;-1.03;;;;;;2672428;76;20480;-90
2023/04/04 00:17:01;;;;;;;;;;;0.89;-0.90;;;;;;2672146;76;20511;-90
2023/04/04 00:20:29;;;;;;;;;;;0.76;-0.96;;;;;;2672968;76;20436;-91
2023/04/04 00:23:58;;;;;;;;;;;0.64;-0.85;;;;;;2672314;76;20447;-90
2023/04/04 00:27:26;;;;;;;;;;;0.57;-0.79;;;;;;2672977;76;20432;-90
2023/04/04 00:30:55;;;;;;;;;;;0.54;-0.59;;;;;;2672455;76;20787;-91
2023/04/04 00:34:23;;;;;;;;;;;0.46;-0.74;;;;;;2672729;76;20323;-90
2023/04/04 00:37:51;;;;;;;;;;;0.38;-0.82;;;;;;2672548;76;20335;-90
2023/04/04 00:41:19;;;;;;;;;;;0.32;-0.77;;;;;;2672205;76;20445;-90
2023/04/04 00:44:47;;;;;;;;;;;0.30;-0.65;;;;;;2673022;76;20452;-91
2023/04/04 00:48:16;;;;;;;;;;;0.19;-0.74;;;;;;2672631;76;20325;-91
2023/04/04 00:51:44;;;;;;;;;;;0.15;-0.57;;;;;;2672857;76;20308;-90
2023/04/04 00:55:12;;;;;;;;;;;0.02;-0.71;;;;;;2673004;76;20328;-90
2023/04/04 00:58:40;;;;;;;;;;;-0.01;-0.77;;;;;;2672501;76;20300;-90
2023/04/04 01:02:08;;;;;;;;;;;-0.10;-0.81;;;;;;2672493;76;20488;-91
2023/04/04 01:05:36;;;;;;;;;;;-0.12;-0.46;;;;;;2672523;76;20329;-90
2023/04/04 01:09:04;;;;;;;;;;;-0.19;-0.48;;;;;;2673064;76;20445;-90
2023/04/04 01:12:32;;;;;;;;;;;-0.27;-0.41;;;;;;2672950;76;20435;-90
2023/04/04 01:16:00;;;;;;;;;;;-0.29;-0.39;;;;;;2672970;76;20312;-90
2023/04/04 01:19:28;;;;;;;;;;;-0.32;-0.25;;;;;;2672275;76;20377;-91
2023/04/04 01:22:56;;;;;;;;;;;-0.35;-0.26;;;;;;2672969;76;20337;-90
2023/04/04 01:26:30;;;;;;;;;;;-0.41;-0.19;;;;;;2672846;76;20319;-90
2023/04/04 01:29:55;;;;;;;;;;;-0.46;-0.26;;;;;;2672727;76;20437;-89
2023/04/04 01:33:23;;;;;;;;;;;-0.50;-0.26;;;;;;2672150;76;20426;-90
2023/04/04 01:36:52;;;;;;;;;;;-0.52;-0.30;;;;;;2672513;76;20449;-91
2023/04/04 01:40:21;;;;;;;;;;;-0.54;-0.05;;;;;;2673086;76;20453;-90
2023/04/04 01:43:51;;;;;;;;;;;-0.59;0.12;;;;;;2672499;76;20449;-91
2023/04/04 01:47:19;;;;;;;;;;;-0.64;0.04;;;;;;2672642;76;20442;-90
2023/04/04 01:50:47;;;;;;;;;;;-0.67;-0.03;;;;;;2672877;76;20443;-91
2023/04/04 01:54:15;;;;;;;;;;;-0.72;-0.29;;;;;;2672633;76;20464;-90
2023/04/04 01:57:44;;;;;;;;;;;-0.74;-0.19;;;;;;2672368;76;20476;-90
2023/04/04 02:01:12;;;;;;;;;;;-0.80;0.10;;;;;;2672953;76;20476;-90
2023/04/04 02:04:40;;;;;;;;;;;-0.81;0.03;;;;;;2673102;76;20431;-90
2023/04/04 02:08:08;;;;;;;;;;;-0.82;0.18;;;;;;2673635;76;20421;-89
2023/04/04 02:11:36;;;;;;;;;;;-0.84;0.15;;;;;;2673359;76;20431;-89
2023/04/04 02:15:05;;;;;;;;;;;-0.81;0.36;;;;;;2672867;76;20449;-90
2023/04/04 02:18:33;;;;;;;;;;;-0.85;0.34;;;;;;2672716;76;20318;-90
2023/04/04 02:22:01;;;;;;;;;;;-0.85;0.29;;;;;;2673553;76;20318;-90
2023/04/04 02:25:29;;;;;;;;;;;-0.89;0.10;;;;;;2672896;76;20359;-90
2023/04/04 02:28:57;;;;;;;;;;;-0.93;0.24;;;;;;2672609;76;20898;-90
2023/04/04 02:32:26;;;;;;;;;;;-0.93;0.37;;;;;;2672647;76;20299;-89
2023/04/04 02:35:54;;;;;;;;;;;-0.95;0.06;;;;;;2673153;76;20320;-89
2023/04/04 02:39:22;;;;;;;;;;;-0.98;0.17;;;;;;2673551;76;20314;-90
2023/04/04 02:42:51;;;;;;;;;;;-0.99;0.37;;;;;;2672569;76;20550;-90
2023/04/04 02:46:19;;;;;;;;;;;-1.01;0.65;;;;;;2672882;76;20952;-89
2023/04/04 02:49:47;;;;;;;;;;;-1.02;0.55;;;;;;2672344;76;20969;-89
2023/04/04 02:53:16;;;;;;;;;;;-1.06;0.39;;;;;;2672551;76;20474;-89
2023/04/04 02:56:44;;;;;;;;;;;-1.08;0.46;;;;;;2672914;76;20438;-90
2023/04/04 03:00:12;;;;;;;;;;;-1.05;0.64;;;;;;2671516;76;20445;-90
2023/04/04 03:03:40;;;;;;;;;;;-1.10;0.56;;;;;;2671687;76;20446;-90
2023/04/04 03:07:08;;;;;;;;;;;-1.13;0.62;;;;;;2673149;76;20464;-89
2023/04/04 03:10:36;;;;;;;;;;;-1.16;0.65;;;;;;2673003;76;20426;-90
2023/04/04 03:14:05;;;;;;;;;;;-1.17;0.88;;;;;;2672743;76;20459;-90
2023/04/04 03:17:33;;;;;;;;;;;-1.17;0.79;;;;;;2673042;76;20486;-89
2023/04/04 03:21:01;;;;;;;;;;;-1.20;0.65;;;;;;2673179;76;20319;-90
2023/04/04 03:24:29;;;;;;;;;;;-1.18;0.61;;;;;;2673100;76;20540;-89
2023/04/04 03:27:57;;;;;;;;;;;-1.24;0.49;;;;;;2672505;76;20321;-89
2023/04/04 03:31:26;;;;;;;;;;;-1.26;0.68;;;;;;2672787;76;20347;-89
2023/04/04 03:34:54;;;;;;;;;;;-1.27;0.99;;;;;;2672573;76;20533;-89
2023/04/04 03:38:22;;;;;;;;;;;-1.26;1.12;;;;;;2673004;76;20468;-89
2023/04/04 03:41:50;;;;;;;;;;;-1.24;1.05;;;;;;2672818;76;20357;-89
2023/04/04 03:45:18;;;;;;;;;;;-1.28;0.99;;;;;;2672684;76;20484;-90
2023/04/04 03:48:46;;;;;;;;;;;-1.32;0.88;;;;;;2673039;76;20328;-89
2023/04/04 03:52:15;;;;;;;;;;;-1.30;0.90;;;;;;2672887;76;20381;-89
2023/04/04 03:55:43;;;;;;;;;;;-1.33;0.88;;;;;;2672345;76;20321;-90
2023/04/04 03:59:11;;;;;;;;;;;-1.33;0.84;;;;;;2672406;76;20333;-89
2023/04/04 04:02:39;;;;;;;;;;;-1.36;0.65;;;;;;2671955;76;20434;-90
2023/04/04 04:06:11;;;;;;;;;;;-1.35;1.00;;;;;;2673061;76;20453;-89
2023/04/04 04:09:39;;;;;;;;;;;-1.38;1.06;;;;;;2671840;76;20781;-89
2023/04/04 04:13:07;;;;;;;;;;;-1.34;1.11;;;;;;2671746;76;20308;-89
2023/04/04 04:16:36;;;;;;;;;;;-1.35;1.26;;;;;;2671993;76;20355;-89
2023/04/04 04:20:04;;;;;;;;;;;-1.42;0.90;;;;;;2672380;76;20360;-88
2023/04/04 04:23:32;;;;;;;;;;;-1.46;0.85;;;;;;2671978;76;20468;-89
2023/04/04 04:27:00;;;;;;;;;;;-1.46;1.01;;;;;;2671561;76;20492;-89
2023/04/04 04:30:29;;;;;;;;;;;-1.49;0.59;;;;;;2671318;76;20953;-88
2023/04/04 04:33:57;;;;;;;;;;;-1.47;0.65;;;;;;2672277;76;20915;-89
2023/04/04 04:37:25;;;;;;;;;;;-1.45;0.91;;;;;;2672406;76;20823;-88
2023/04/04 04:40:54;;;;;;;;;;;-1.47;0.73;;;;;;2672077;76;20455;-88
2023/04/04 04:44:22;;;;;;;;;;;-1.49;0.51;;;;;;2671109;76;20530;-89
2023/04/04 04:47:50;;;;;;;;;;;-1.49;0.62;;;;;;2672256;76;20436;-89
2023/04/04 04:51:18;;;;;;;;;;;-1.49;0.82;;;;;;2671943;76;20315;-88
2023/04/04 04:54:47;;;;;;;;;;;-1.50;0.74;;;;;;2671704;76;20420;-88
2023/04/04 04:58:16;;;;;;;;;;;-1.43;0.78;;;;;;2671092;76;20447;-88
2023/04/04 05:01:44;;;;;;;;;;;-1.42;0.65;;;;;;2672246;76;20444;-88
2023/04/04 05:05:13;;;;;;;;;;;-1.38;0.64;;;;;;2669995;76;20426;-88
2023/04/04 05:08:41;;;;;;;;;;;-1.34;0.52;;;;;;2672321;76;20458;-88
2023/04/04 05:12:09;;;;;;;;;;;-1.27;0.61;;;;;;2671603;76;20433;-88
2023/04/04 05:15:37;;;;;;;;;;;-0.89;0.91;;;;;;2672140;76;20429;-89
2023/04/04 05:19:05;;;;;;;;;;;-0.88;0.32;;;;;;2672206;76;20441;-89
2023/04/04 05:22:36;;;;;;;;;;;-0.86;0.39;;;;;;2672827;76;20470;-88
2023/04/04 05:26:07;;;;;;;;;;;-0.84;0.50;;;;;;2671520;76;20482;-89
2023/04/04 05:29:36;;;;;;;;;;;-0.84;0.26;;;;;;2672297;76;20444;-88
2023/04/04 05:33:04;;;;;;;;;;;-0.70;0.56;;;;;;2672788;76;20437;-88
2023/04/04 05:36:32;;;;;;;;;;;-0.66;0.55;;;;;;2669244;76;20444;-88
2023/04/04 05:40:00;;;;;;;;;;;-0.54;0.48;;;;;;2671713;76;20446;-88
2023/04/04 05:43:28;;;;;;;;;;;-0.44;0.61;;;;;;2671666;76;20484;-88
2023/04/04 05:46:56;;;;;;;;;;;-0.35;0.58;;;;;;2671806;76;20437;-89
2023/04/04 05:50:24;;;;;;;;;;;-0.23;0.40;;;;;;2671319;76;20467;-88
2023/04/04 05:53:58;;;;;;;;;;;-0.14;0.34;;;;;;2669272;76;20462;-88
2023/04/04 05:57:23;;;;;;;;;;;-0.10;-0.09;;;;;;2668411;76;20466;-87
2023/04/04 06:00:51;;;;;;;;;;;-0.03;-0.51;;;;;;2669535;76;20430;-88
2023/04/04 06:04:19;;;;;;;;;;;0.13;-0.55;;;;;;2669504;76;20444;-88
2023/04/04 06:07:47;;;;;;;;;;;0.17;-1.08;;;;;;2670346;76;20405;-88
2023/04/04 06:11:16;;;;;;;;;;;0.38;-0.96;;;;;;2671134;76;20431;-88
2023/04/04 06:14:44;;;;;;;;;;;0.44;-1.34;;;;;;2671960;76;20888;-88
2023/04/04 06:18:12;;;;;;;;;;;0.48;-1.64;;;;;;2670564;76;20421;-88
2023/04/04 06:21:40;;;;;;;;;;;0.54;-1.97;;;;;;2671153;76;20496;-88
2023/04/04 06:25:09;;;;;;;;;;;0.69;-2.03;;;;;;2671521;76;20434;-88
2023/04/04 06:28:38;;;;;;;;;;;0.76;-2.44;;;;;;2671368;76;20534;-87
2023/04/04 06:32:06;;;;;;;;;;;0.81;-2.83;;;;;;2671912;76;20482;-88
2023/04/04 06:35:34;;;;;;;;;;;1.03;-2.56;;;;;;2670439;76;20863;-89
2023/04/04 06:39:02;;;;;;;;;;;1.02;-3.23;;;;;;2672177;76;21013;-88
2023/04/04 06:42:30;;;;;;;;;;;1.12;-3.80;;;;;;2669910;76;20485;-88
2023/04/04 06:45:58;;;;;;;;;;;1.17;-4.31;;;;;;2671998;76;20436;-88
2023/04/04 06:49:26;;;;;;;;;;;1.33;-4.25;;;;;;2671855;76;20491;-88
2023/04/04 06:52:56;;;;;;;;;;;1.37;-4.68;;;;;;2672323;76;20466;-89
2023/04/04 06:56:25;;;;;;;;;;;1.57;-4.40;;;;;;2671459;76;20466;-89
2023/04/04 06:59:53;;;;;;;;;;;1.62;-4.61;;;;;;2671524;76;20428;-89
2023/04/04 07:03:23;;;;;;;;;;;1.54;-6.00;;;;;;2671183;76;20882;-89
2023/04/04 07:06:51;;;;;;;;;;;1.64;118.62;;;;;;2671501;76;20448;-89
2023/04/04 07:10:19;;;;;;;;;;;1.62;117.89;;;;;;2671493;76;20448;-89
2023/04/04 07:13:48;;;;;;;;;;;1.76;117.75;;;;;;2671072;76;20435;-89
2023/04/04 07:17:16;;;;;;;;;;;1.84;117.52;;;;;;2669749;76;20465;-88
2023/04/04 07:20:47;;;;;;;;;;;2.01;117.45;;;;;;2670424;76;20469;-89
2023/04/04 07:24:15;;;;;;;;;;;1.93;116.72;;;;;;2671470;76;20421;-89
2023/04/04 07:27:43;;;;;;;;;;;2.10;116.50;;;;;;2672002;76;20313;-89
2023/04/04 07:31:13;;;;;;;;;;;2.16;116.02;;;;;;2670859;76;20434;-89
2023/04/04 07:34:41;;;;;;;;;;;2.30;115.77;;;;;;2671973;76;20295;-89
2023/04/04 07:38:09;;;;;;;;;;;2.35;115.41;;;;;;2671833;76;20334;-89
2023/04/04 07:41:38;;;;;;;;;;;2.43;115.09;;;;;;2670857;76;20465;-89
2023/04/04 07:45:06;;;;;;;;;;;2.38;113.66;;;;;;2671742;76;20433;-89
2023/04/04 07:48:34;;;;;;;;;;;2.41;111.95;;;;;;2671067;76;20337;-89
2023/04/04 07:52:03;;;;;;;;;;;2.43;110.69;;;;;;2672368;76;20310;-89
2023/04/04 07:55:31;;;;;;;;;;;2.54;109.65;;;;;;2671764;76;20479;-89
2023/04/04 07:58:59;;;;;;;;;;;2.78;109.98;;;;;;2670935;76;20455;-89
2023/04/04 08:02:27;;;;;;;;;;;2.87;110.19;;;;;;2671303;76;20437;-89
2023/04/04 08:05:55;;;;;;;;;;;2.80;109.54;;;;;;2672097;76;20897;-89
2023/04/04 08:09:24;;;;;;;;;;;2.82;108.32;;;;;;2671981;76;20453;-88
2023/04/04 08:12:52;;;;;;;;;;;2.93;107.92;;;;;;2670607;76;20331;-89
2023/04/04 08:16:21;;;;;;;;;;;3.00;107.85;;;;;;2671302;76;20417;-89
2023/04/04 08:19:49;;;;;;;;;;;3.04;108.12;;;;;;2670553;76;20457;-89
2023/04/04 08:23:17;;;;;;;;;;;3.31;107.78;;;;;;2671205;76;20437;-89
2023/04/04 08:26:45;;;;;;;;;;;3.43;106.63;;;;;;2670974;76;20348;-89
2023/04/04 08:30:14;;;;;;;;;;;3.78;106.21;;;;;;2671212;76;20321;-91
2023/04/04 08:33:42;;;;;;;;;;;4.19;106.70;;;;;;2672592;76;20421;-88
2023/04/04 08:37:10;;;;;;;;;;;4.68;106.59;;;;;;2671763;76;20439;-88
2023/04/04 08:40:38;;;;;;;;;;;4.74;105.07;;;;;;2672256;76;20455;-89
2023/04/04 08:44:07;;;;;;;;;;;4.90;104.64;;;;;;2671673;76;20450;-89
2023/04/04 08:47:38;;;;;;;;;;;5.20;105.21;;;;;;2672183;76;20465;-89
2023/04/04 08:51:07;;;;;;;;;;;5.66;104.98;;;;;;2671802;76;20485;-89
2023/04/04 08:54:36;;;;;;;;;;;6.41;103.83;;;;;;2670403;76;20449;-88
2023/04/04 08:58:04;;;;;;;;;;;7.16;102.62;;;;;;2671047;76;20899;-88
2023/04/04 09:01:32;;;;;;;;;;;7.38;100.93;;;;;;2671950;76;20452;-88
2023/04/04 09:05:00;;;;;;;;;;;7.58;99.67;;;;;;2670791;76;20416;-89
2023/04/04 09:08:32;;;;;;;;;;;7.96;99.20;;;;;;2671986;76;20339;-88
2023/04/04 09:12:00;;;;;;;;;;;8.09;100.54;;;;;;2671112;76;20425;-88
2023/04/04 09:15:28;;;;;;;;;;;7.89;100.60;;;;;;2671045;76;20417;-89
2023/04/04 09:18:56;;;;;;;;;;;7.63;98.47;;;;;;2671757;76;20475;-89
2023/04/04 09:22:24;;;;;;;;;;;7.64;96.56;;;;;;2672363;76;20459;-89
2023/04/04 09:25:52;;;;;;;;;;;7.89;97.00;;;;;;2671320;76;20434;-89
2023/04/04 09:29:21;;;;;;;;;;;8.12;98.36;;;;;;2671207;76;20425;-89
2023/04/04 09:32:49;;;;;;;;;;;8.30;98.64;;;;;;2671990;76;20925;-89
2023/04/04 09:36:17;;;;;;;;;;;8.44;97.87;;;;;;2671582;76;20504;-89
2023/04/04 09:39:45;;;;;;;;;;;8.32;95.53;;;;;;2670564;76;21178;-89
2023/04/04 09:43:17;;;;;;;;;;;8.35;94.51;;;;;;2671061;76;20476;-89
2023/04/04 09:46:45;;;;;;;;;;;8.88;97.29;;;;;;2671691;76;20462;-90
2023/04/04 09:50:13;;;;;;;;;;;8.71;96.10;;;;;;2671462;76;20334;-89
2023/04/04 09:53:44;;;;;;;;;;;8.52;95.46;;;;;;2671047;76;21491;-89
2023/04/04 09:57:12;;;;;;;;;;;8.45;95.78;;;;;;2670900;76;20457;-90
2023/04/04 10:00:41;;;;;;;;;;;8.57;95.44;;;;;;2671258;76;20420;-89
2023/04/04 10:04:09;;;;;;;;;;;8.70;94.05;;;;;;2672066;76;20433;-87
2023/04/04 10:07:38;;;;;;;;;;;9.01;95.09;;;;;;2671714;76;20426;-92
2023/04/04 10:11:06;;;;;;;;;;;9.17;94.64;;;;;;2673265;76;20415;-92
2023/04/04 10:14:35;;;;;;;;;;;9.09;93.36;;;;;;2673090;76;20973;-91
2023/04/04 10:18:03;;;;;;;;;;;9.63;93.98;;;;;;2672977;76;20452;-91
2023/04/04 10:21:31;;;;;;;;;;;9.83;92.92;;;;;;2673099;76;20425;-92
2023/04/04 10:24:59;;;;;;;;;;;9.92;91.51;;;;;;2673302;76;20434;-91
2023/04/04 10:28:27;;;;;;;;;;;10.11;90.62;;;;;;2672981;76;20431;-91
2023/04/04 10:31:55;;;;;;;;;;;10.12;91.72;;;;;;2673642;76;20430;-91
2023/04/04 10:35:26;;;;;;;;;;;9.11;91.36;;;;;;2672988;76;20419;-91
2023/04/04 10:38:56;;;;;;;;;;;8.00;91.15;;;;;;2672775;76;20451;-91
2023/04/04 10:42:24;;;;;;;;;;;7.69;92.83;;;;;;2673368;76;20567;-91
2023/04/04 10:45:52;;;;;;;;;;;7.05;92.43;;;;;;2673863;76;20413;-91
2023/04/04 10:49:20;;;;;;;;;;;6.89;93.69;;;;;;2672823;76;20411;-91
2023/04/04 10:52:48;;;;;;;;;;;6.79;94.53;;;;;;2672785;76;20429;-92
2023/04/04 10:56:21;;;;;;;;;;;6.52;94.91;;;;;;2671955;76;20469;-91
2023/04/04 10:59:46;;;;;;;;;;;5.91;94.28;;;;;;2671843;76;20428;-91
2023/04/04 11:03:14;;;;;;;;;;;5.80;94.91;;;;;;2672316;76;20423;-91
2023/04/04 11:06:42;;;;;;;;;;;5.87;96.36;;;;;;2673009;76;20428;-91
2023/04/04 11:10:11;;;;;;;;;;;5.90;97.73;;;;;;2672492;76;20431;-91
2023/04/04 11:13:40;;;;;;;;;;;6.08;96.65;;;;;;2672518;76;20446;-91
2023/04/04 11:17:08;;;;;;;;;;;6.41;96.45;;;;;;2672063;76;20921;-91
2023/04/04 11:20:38;;;;;;;;;;;6.55;96.49;;;;;;2672336;76;20430;-92
2023/04/04 11:24:06;;;;;;;;;;;6.10;95.04;;;;;;2671045;76;21136;-92
2023/04/04 11:27:34;;;;;;;;;;;6.20;94.66;;;;;;2671587;76;20959;-91
2023/04/04 11:31:02;;;;;;;;;;;6.37;95.65;;;;;;2673447;76;20528;-91
2023/04/04 11:34:31;;;;;;;;;;;6.69;96.86;;;;;;2672446;76;20564;-91
2023/04/04 11:37:59;;;;;;;;;;;7.16;96.18;;;;;;2671368;76;20474;-90
2023/04/04 11:41:28;;;;;;;;;;;8.21;95.70;;;;;;2672758;76;20439;-92
2023/04/04 11:44:56;;;;;;;;;;;8.82;95.30;;;;;;2672910;76;20425;-92
2023/04/04 11:48:24;;;;;;;;;;;9.17;94.24;;;;;;2672995;76;20917;-89
2023/04/04 11:51:52;;;;;;;;;;;9.45;93.08;;;;;;2671954;76;20461;-92
2023/04/04 11:55:21;;;;;;;;;;;9.27;92.11;;;;;;2672268;76;20431;-91
2023/04/04 11:58:49;;;;;;;;;;;8.88;90.97;;;;;;2672945;76;20328;-90
2023/04/04 12:02:18;;;;;;;;;;;8.93;92.05;;;;;;2673030;76;20320;-91
2023/04/04 12:05:46;;;;;;;;;;;8.68;93.48;;;;;;2672809;76;20432;-91
2023/04/04 12:09:17;;;;;;;;;;;8.50;93.17;;;;;;2672371;76;20813;-92
2023/04/04 12:12:44;;;;;;;;;;;8.29;92.43;;;;;;2672470;76;20364;-92
2023/04/04 12:16:12;;;;;;;;;;;8.02;92.34;;;;;;2672697;76;20475;-91
2023/04/04 12:19:40;;;;;;;;;;;8.16;93.56;;;;;;2671971;76;20352;-91
2023/04/04 12:23:09;;;;;;;;;;;8.58;94.22;;;;;;2672206;76;20320;-90
2023/04/04 12:26:37;;;;;;;;;;;9.16;92.87;;;;;;2672257;76;20446;-91
2023/04/04 12:30:09;;;;;;;;;;;9.66;91.28;;;;;;2671993;76;20448;-91
2023/04/04 12:33:35;;;;;;;;;;;10.12;89.92;;;;;;2672234;76;20316;-91
2023/04/04 12:37:03;;;;;;;;;;;10.59;90.46;;;;;;2672464;76;20304;-91
2023/04/04 12:40:32;;;;;;;;;;;10.92;91.64;;;;;;2671797;76;20434;-92
2023/04/04 12:44:01;;;;;;;;;;;10.56;90.82;;;;;;2672382;76;20422;-91
2023/04/04 12:47:30;;;;;;;;;;;10.59;91.86;;;;;;2672264;76;21195;-91
2023/04/04 12:50:58;;;;;;;;;;;10.27;90.72;;;;;;2672078;76;20302;-91
2023/04/04 12:54:26;;;;;;;;;;;9.54;89.42;;;;;;2672401;76;20338;-91
2023/04/04 12:57:54;;;;;;;;;;;9.31;90.44;;;;;;2672318;76;20769;-91
2023/04/04 13:01:22;;;;;;;;;;;9.20;90.19;;;;;;2672118;76;20535;-90
2023/04/04 13:04:51;;;;;;;;;;;9.78;91.59;;;;;;2671729;76;20418;-91
2023/04/04 13:08:19;;;;;;;;;;;10.60;91.27;;;;;;2671857;76;20425;-91
2023/04/04 13:11:47;;;;;;;;;;;10.84;90.33;;;;;;2672098;76;20434;-91
2023/04/04 13:15:16;;;;;;;;;;;10.72;90.85;;;;;;2672349;76;20418;-92
2023/04/04 13:18:47;;;;;;;;;;;10.13;91.75;;;;;;2672778;76;20365;-91
2023/04/04 13:22:14;;;;;;;;;;;9.19;92.23;;;;;;2672048;76;20446;-91
2023/04/04 13:25:42;;;;;;;;;;;8.67;93.17;;;;;;2671993;76;20421;-90
2023/04/04 13:29:10;;;;;;;;;;;8.21;93.57;;;;;;2672985;76;20423;-90
2023/04/04 13:32:38;;;;;;;;;;;8.39;93.43;;;;;;2672048;76;20419;-90
2023/04/04 13:36:06;;;;;;;;;;;8.41;92.97;;;;;;2671766;76;20427;-90
2023/04/04 13:39:35;;;;;;;;;;;8.91;93.45;;;;;;2671922;76;20434;-91
2023/04/04 13:43:03;;;;;;;;;;;8.96;94.31;;;;;;2672215;76;20434;-91
2023/04/04 13:46:31;;;;;;;;;;;8.76;94.72;;;;;;2672563;76;20423;-90
2023/04/04 13:49:59;;;;;;;;;;;8.19;95.10;;;;;;2671931;76;20456;-90
2023/04/04 13:53:27;;;;;;;;;;;8.01;95.05;;;;;;2672006;76;20452;-90
2023/04/04 13:56:56;;;;;;;;;;;8.06;94.42;;;;;;2671978;76;20466;-91
2023/04/04 14:00:24;;;;;;;;;;;8.49;95.14;;;;;;2672628;76;20812;-90
2023/04/04 14:03:52;;;;;;;;;;;8.91;94.72;;;;;;2672769;76;20453;-91
2023/04/04 14:07:20;;;;;;;;;;;10.04;94.49;;;;;;2672284;76;20308;-90
2023/04/04 14:10:48;;;;;;;;;;;10.63;92.84;;;;;;2672655;76;20329;-90
2023/04/04 14:14:16;;;;;;;;;;;9.85;91.11;;;;;;2672248;76;20316;-90
2023/04/04 14:17:45;;;;;;;;;;;9.31;91.96;;;;;;2672824;76;20765;-90
2023/04/04 14:21:13;;;;;;;;;;;8.39;91.86;;;;;;2672604;76;20743;-91
2023/04/04 14:24:41;;;;;;;;;;;7.99;93.26;;;;;;2672012;76;20426;-91
2023/04/04 14:28:09;;;;;;;;;;;7.47;94.07;;;;;;2671984;76;20459;-90
2023/04/04 14:31:37;;;;;;;;;;;7.09;94.54;;;;;;2671762;76;20450;-90
2023/04/04 14:35:05;;;;;;;;;;;7.28;95.44;;;;;;2671495;76;20443;-90
2023/04/04 14:38:33;;;;;;;;;;;7.64;94.62;;;;;;2672022;76;20410;-90
2023/04/04 14:42:01;;;;;;;;;;;7.81;93.95;;;;;;2672488;76;20434;-90
2023/04/04 14:45:31;;;;;;;;;;;7.82;94.72;;;;;;2672677;76;20443;-91
2023/04/04 14:48:59;;;;;;;;;;;7.48;95.51;;;;;;2672462;76;20430;-91
2023/04/04 14:52:32;;;;;;;;;;;7.12;96.07;;;;;;2672493;76;20545;-90
2023/04/04 14:55:57;;;;;;;;;;;6.74;95.59;;;;;;2671769;76;20421;-90
2023/04/04 14:59:25;;;;;;;;;;;7.43;96.06;;;;;;2671068;76;20451;-90
2023/04/04 15:02:53;;;;;;;;;;;12.67;95.65;;;;;;2671207;76;20436;-90
2023/04/04 15:06:21;;;;;;;;;;;17.77;90.79;;;;;;2671661;76;20629;-90
2023/04/04 15:09:49;;;;;;;;;;;20.61;86.50;;;;;;2670197;76;20941;-90
2023/04/04 15:13:17;;;;;;;;;;;22.25;84.23;;;;;;2671721;76;20930;-91
2023/04/04 15:16:45;;;;;;;;;;;22.77;79.80;;;;;;2671576;76;20425;-91
2023/04/04 15:20:14;;;;;;;;;;;23.69;78.46;;;;;;2672026;76;20993;-91
2023/04/04 15:23:42;;;;;;;;;;;24.53;77.93;;;;;;2671126;76;21100;-91
2023/04/04 15:27:10;;;;;;;;;;;23.82;75.83;;;;;;2671464;76;20790;-91
2023/04/04 15:30:38;;;;;;;;;;;24.34;71.32;;;;;;2672140;76;20491;-91
2023/04/04 15:34:06;;;;;;;;;;;24.86;68.41;;;;;;2670950;76;20445;-92
2023/04/04 15:37:34;;;;;;;;;;;25.43;67.23;;;;;;2671516;76;20409;-91
2023/04/04 15:41:03;;;;;;;;;;;21.79;65.63;;;;;;2670166;76;20993;-91
2023/04/04 15:44:31;;;;;;;;;;;16.61;69.50;;;;;;2670584;76;20483;-92
2023/04/04 15:47:59;;;;;;;;;;;12.96;73.63;;;;;;2670699;76;20463;-90
2023/04/04 15:51:29;;;;;;;;;;;11.13;77.40;;;;;;2670728;76;20422;-90
2023/04/04 15:54:57;;;;;;;;;;;9.79;79.44;;;;;;2670531;76;20418;-91
2023/04/04 15:58:25;;;;;;;;;;;8.76;81.12;;;;;;2670184;76;20942;-91
2023/04/04 16:01:53;;;;;;;;;;;9.77;81.44;;;;;;2670741;76;20436;-91
2023/04/04 16:05:21;;;;;;;;;;;12.86;80.16;;;;;;2671726;76;20413;-90
2023/04/04 16:08:49;;;;;;;;;;;13.22;79.64;;;;;;2670468;76;20430;-90
2023/04/04 16:12:19;;;;;;;;;;;18.56;77.05;;;;;;2671358;76;20447;-91
2023/04/04 16:15:47;;;;;;;;;;;21.01;72.58;;;;;;2671219;76;20425;-90
2023/04/04 16:19:16;;;;;;;;;;;22.55;70.01;;;;;;2670774;76;20418;-92
2023/04/04 16:22:44;;;;;;;;;;;24.15;69.33;;;;;;2670661;76;20437;-92
2023/04/04 16:26:12;;;;;;;;;;;24.57;67.85;;;;;;2671075;76;20421;-90
2023/04/04 16:29:40;;;;;;;;;;;23.67;64.75;;;;;;2671544;76;20450;-91
2023/04/04 16:33:08;;;;;;;;;;;23.26;64.56;;;;;;2670762;76;20421;-92
2023/04/04 16:36:37;;;;;;;;;;;22.44;63.56;;;;;;2671552;76;20433;-91
2023/04/04 16:40:05;;;;;;;;;;;21.47;62.41;;;;;;2670680;76;20463;-90
2023/04/04 16:43:33;;;;;;;;;;;20.96;62.48;;;;;;2671786;76;20525;-91
2023/04/04 16:47:01;;;;;;;;;;;19.60;62.89;;;;;;2671071;76;20454;-90
2023/04/04 16:50:29;;;;;;;;;;;18.81;64.59;;;;;;2670949;76;20436;-90
2023/04/04 16:53:58;;;;;;;;;;;14.10;65.69;;;;;;2671354;76;20476;-92
2023/04/04 16:57:26;;;;;;;;;;;14.37;69.50;;;;;;2671676;76;20432;-91
2023/04/04 17:00:54;;;;;;;;;;;13.50;71.89;;;;;;2671551;76;20469;-90
2023/04/04 17:04:22;;;;;;;;;;;14.57;72.99;;;;;;2670890;76;20485;-91
2023/04/04 17:07:50;;;;;;;;;;;15.55;71.51;;;;;;2671176;76;20439;-88
2023/04/04 17:11:18;;;;;;;;;;;14.75;71.17;;;;;;2671098;76;20434;-91
2023/04/04 17:14:46;;;;;;;;;;;13.23;72.96;;;;;;2671552;76;20440;-90
2023/04/04 17:18:14;;;;;;;;;;;9.92;75.69;;;;;;2670555;76;20704;-90
2023/04/04 17:21:42;;;;;;;;;;;8.09;79.72;;;;;;2670065;76;20422;-90
2023/04/04 17:25:11;;;;;;;;;;;7.04;82.43;;;;;;2671246;76;20430;-90
2023/04/04 17:28:44;;;;;;;;;;;6.35;84.08;;;;;;2671532;76;20449;-91
2023/04/04 17:32:09;;;;;;;;;;;5.83;85.26;;;;;;2670731;76;20443;-90
2023/04/04 17:35:37;;;;;;;;;;;5.46;86.27;;;;;;2671840;76;20754;-90
2023/04/04 17:39:05;;;;;;;;;;;5.07;87.14;;;;;;2671506;76;20417;-90
2023/04/04 17:42:33;;;;;;;;;;;4.77;87.65;;;;;;2671456;76;20446;-90
2023/04/04 17:46:05;;;;;;;;;;;4.46;88.07;;;;;;2671824;76;20432;-90
2023/04/04 17:49:32;;;;;;;;;;;4.21;88.55;;;;;;2671328;76;20418;-89
2023/04/04 17:53:06;;;;;;;;;;;3.99;88.96;;;;;;2671053;76;20410;-90
2023/04/04 17:56:30;;;;;;;;;;;3.78;89.49;;;;;;2671466;76;20308;-90
2023/04/04 17:59:58;;;;;;;;;;;3.63;89.89;;;;;;2671435;76;20312;-90
2023/04/04 18:03:26;;;;;;;;;;;3.47;90.42;;;;;;2670451;76;20342;-90
2023/04/04 18:06:54;;;;;;;;;;;3.30;90.87;;;;;;2671480;76;20477;-91
2023/04/04 18:10:22;;;;;;;;;;;3.14;91.13;;;;;;2670851;76;20946;-90
2023/04/04 18:13:51;;;;;;;;;;;2.98;91.34;;;;;;2671455;76;21238;-90
2023/04/04 18:17:19;;;;;;;;;;;2.83;91.50;;;;;;2671385;76;20785;-90
2023/04/04 18:20:47;;;;;;;;;;;2.67;91.53;;;;;;2671061;76;20415;-90
2023/04/04 18:24:18;;;;;;;;;;;2.55;91.82;;;;;;2671010;76;20430;-89
2023/04/04 18:27:46;;;;;;;;;;;2.40;92.19;;;;;;2670666;76;20375;-89
2023/04/04 18:31:15;;;;;;;;;;;2.22;92.53;;;;;;2670809;76;20437;-90
2023/04/04 18:34:43;;;;;;;;;;;2.07;92.87;;;;;;2671214;76;20883;-90
2023/04/04 18:38:11;;;;;;;;;;;1.93;93.01;;;;;;2670673;76;20876;-90
2023/04/04 18:41:39;;;;;;;;;;;1.82;93.11;;;;;;2670372;76;20921;-90
2023/04/04 18:45:07;;;;;;;;;;;1.73;93.31;;;;;;2672112;76;20930;-90
2023/04/04 18:48:35;;;;;;;;;;;1.63;93.47;;;;;;2670209;76;20958;-90
2023/04/04 18:52:03;;;;;;;;;;;1.55;93.72;;;;;;2671894;76;20480;-90
2023/04/04 18:55:31;;;;;;;;;;;1.49;94.11;;;;;;2671427;76;20472;-90
2023/04/04 18:58:59;;;;;;;;;;;1.38;94.51;;;;;;2670734;76;20454;-89
2023/04/04 19:02:28;;;;;;;;;;;1.31;94.83;;;;;;2670468;76;20878;-90
2023/04/04 19:05:56;;;;;;;;;;;1.20;95.08;;;;;;2671231;76;20445;-90
2023/04/04 19:09:24;;;;;;;;;;;1.08;95.23;;;;;;2670691;76;20942;-90
2023/04/04 19:12:53;;;;;;;;;;;1.03;95.36;;;;;;2671450;76;20425;-90
2023/04/04 19:16:22;;;;;;;;;;;0.96;95.59;;;;;;2670779;76;20564;-90
2023/04/04 19:19:50;;;;;;;;;;;0.90;95.79;;;;;;2670235;76;20421;-91
2023/04/04 19:23:19;;;;;;;;;;;0.82;95.93;;;;;;2669496;76;20340;-90
2023/04/04 19:26:47;;;;;;;;;;;0.76;96.10;;;;;;2670301;76;20433;-90
2023/04/04 19:30:15;;;;;;;;;;;0.72;96.33;;;;;;2671370;76;20406;-90
2023/04/04 19:33:43;;;;;;;;;;;0.65;96.63;;;;;;2671946;76;20415;-90
2023/04/04 19:37:11;;;;;;;;;;;0.61;96.73;;;;;;2671297;76;20947;-90
2023/04/04 19:40:39;;;;;;;;;;;0.54;97.05;;;;;;2671665;76;20433;-90
2023/04/04 19:44:07;;;;;;;;;;;0.47;97.54;;;;;;2671549;76;20433;-90
2023/04/04 19:47:36;;;;;;;;;;;0.44;97.70;;;;;;2672208;76;20916;-90
2023/04/04 19:51:04;;;;;;;;;;;0.36;97.72;;;;;;2670976;76;20915;-90
2023/04/04 19:54:40;;;;;;;;;;;0.30;97.84;;;;;;2671598;76;20995;-90
2023/04/04 19:58:04;;;;;;;;;;;0.27;98.03;;;;;;2670476;76;20492;-90
2023/04/04 20:01:37;;;;;;;;;;;0.24;98.27;;;;;;2671459;76;20413;-90
2023/04/04 20:05:02;;;;;;;;;;;0.20;98.45;;;;;;2670650;76;20899;-90
2023/04/04 20:08:30;;;;;;;;;;;0.13;98.55;;;;;;2671598;76;20458;-89
2023/04/04 20:12:01;;;;;;;;;;;0.09;98.68;;;;;;2671725;76;21622;-90
2023/04/04 20:15:32;;;;;;;;;;;0.04;98.83;;;;;;2672102;76;20433;-90
2023/04/04 20:19:00;;;;;;;;;;;-0.05;98.93;;;;;;2672532;76;20361;-89
2023/04/04 20:22:28;;;;;;;;;;;-0.06;99.22;;;;;;2671644;76;21407;-89
2023/04/04 20:25:56;;;;;;;;;;;-0.10;99.49;;;;;;2671991;76;20441;-89